Time;durP1;ratioP1;P1;durP2;ratioP2;P2;SDS_P1;SDS_P2;PMS_P1;PMS_P2;Temp;Humidity;BMP_temperature;BMP_pressure;BME280_temperature;BME280_humidity;BME280_pressure;Samples;Min_cycle;Max_cycle;Signal;HPM_P1;HPM_P2
2022/01/06 00:00:24;;;;;;;22.87;3.87;;;;;;;2.05;91.01;101495.16;5057944;28;20052;-60
2022/01/06 00:02:49;;;;;;;26.40;3.97;;;;;;;2.01;91.17;101488.44;5060327;28;20032;-60
2022/01/06 00:05:15;;;;;;;19.77;3.13;;;;;;;1.98;91.22;101495.66;5064830;28;20024;-60
2022/01/06 00:07:40;;;;;;;17.53;3.07;;;;;;;1.95;91.14;101490.59;5056499;28;20064;-60
2022/01/06 00:10:10;;;;;;;28.57;3.80;;;;;;;1.95;91.13;101501.09;5058762;28;20107;-60
2022/01/06 00:18:30;;;;;;;17.13;3.27;;;;;;;1.85;91.24;101501.69;4977357;28;20038;-60
2022/01/06 00:23:39;;;;;;;20.73;3.23;;;;;;;1.76;91.12;101506.69;5051823;28;20091;-60
2022/01/06 00:26:06;;;;;;;21.37;3.40;;;;;;;1.70;91.12;101518.34;5062199;28;20450;-60
2022/01/06 00:28:32;;;;;;;15.70;3.17;;;;;;;1.69;91.42;101516.69;5059439;28;20037;-59
2022/01/06 00:30:57;;;;;;;26.53;3.50;;;;;;;1.69;91.62;101515.84;5057903;28;20017;-59
2022/01/06 00:33:24;;;;;;;18.93;3.10;;;;;;;1.66;91.61;101523.88;5058500;28;20029;-60
2022/01/06 00:35:50;;;;;;;23.90;3.23;;;;;;;1.65;91.49;101520.44;5057763;28;20033;-60
2022/01/06 00:38:16;;;;;;;27.37;3.77;;;;;;;1.65;91.67;101532.69;5054658;28;20039;-60
2022/01/06 00:40:41;;;;;;;30.03;4.23;;;;;;;1.64;91.81;101523.16;5057208;28;20083;-59
2022/01/06 00:43:07;;;;;;;29.40;3.13;;;;;;;1.67;91.97;101523.78;5056514;28;20036;-59
2022/01/06 00:45:35;;;;;;;27.77;4.10;;;;;;;1.69;92.04;101528.94;5058908;28;20090;-60
2022/01/06 00:48:01;;;;;;;27.50;3.47;;;;;;;1.70;92.04;101528.00;5060432;28;20089;-60
2022/01/06 00:50:27;;;;;;;29.57;4.40;;;;;;;1.72;92.13;101528.72;5066720;28;20111;-60
2022/01/06 00:52:52;;;;;;;19.10;3.17;;;;;;;1.77;92.43;101534.53;5063566;28;20055;-60
2022/01/06 00:55:17;;;;;;;28.73;3.70;;;;;;;1.79;92.19;101537.91;5062529;28;20024;-60
2022/01/06 00:57:43;;;;;;;25.57;3.80;;;;;;;1.78;92.21;101539.69;5061974;28;20025;-60
2022/01/06 01:00:09;;;;;;;26.63;3.47;;;;;;;1.76;91.92;101543.34;5068544;28;20399;-60
2022/01/06 01:02:35;;;;;;;23.23;3.70;;;;;;;1.71;92.08;101534.91;5066514;28;20054;-60
2022/01/06 01:05:02;;;;;;;22.70;3.67;;;;;;;1.66;91.85;101535.19;5067825;28;20579;-60
2022/01/06 01:07:27;;;;;;;28.73;4.00;;;;;;;1.60;91.75;101534.75;5053796;28;20029;-60
2022/01/06 01:09:52;;;;;;;30.70;3.87;;;;;;;1.54;91.63;101528.13;5061372;28;20107;-60
2022/01/06 01:12:18;;;;;;;25.03;3.70;;;;;;;1.48;91.75;101531.13;5059371;28;20679;-60
2022/01/06 01:15:00;;;;;;;25.43;4.10;;;;;;;1.43;91.83;101528.78;5056681;28;20119;-60
2022/01/06 01:17:26;;;;;;;26.70;4.07;;;;;;;1.42;92.24;101529.72;5060528;28;20025;-60
2022/01/06 01:19:52;;;;;;;24.27;3.53;;;;;;;1.37;92.17;101525.69;5058835;28;20032;-60
2022/01/06 01:22:18;;;;;;;20.30;3.20;;;;;;;1.36;92.20;101532.72;5051750;28;20568;-60
2022/01/06 01:24:43;;;;;;;25.00;3.53;;;;;;;1.36;92.10;101537.09;5060283;28;20040;-60
2022/01/06 01:27:08;;;;;;;26.20;3.60;;;;;;;1.32;92.02;101533.84;5068747;28;20028;-60
2022/01/06 01:29:51;;;;;;;25.23;4.33;;;;;;;1.29;91.92;101528.78;5051713;28;20472;-60
2022/01/06 01:32:16;;;;;;;22.97;3.77;;;;;;;1.27;92.03;101535.91;5051609;28;20443;-60
2022/01/06 01:34:44;;;;;;;25.67;3.70;;;;;;;1.25;92.28;101548.22;5059937;28;20063;-60
2022/01/06 01:37:10;;;;;;;23.87;3.67;;;;;;;1.18;91.98;101545.16;5057575;28;20427;-60
2022/01/06 01:39:35;;;;;;;20.57;3.37;;;;;;;1.16;91.84;101557.50;5056239;28;20033;-60
2022/01/06 01:42:01;;;;;;;19.40;3.67;;;;;;;1.13;91.95;101560.25;5055664;28;20438;-60
2022/01/06 01:44:26;;;;;;;30.13;4.33;;;;;;;1.15;92.16;101566.25;5058349;28;20035;-60
2022/01/06 01:47:03;;;;;;;26.67;4.20;;;;;;;1.15;92.19;101568.84;5056783;28;20506;-60
2022/01/06 01:49:43;;;;;;;25.50;4.20;;;;;;;1.23;92.54;101571.88;5054770;28;20051;-60
2022/01/06 01:52:08;;;;;;;;;;;;;;;1.29;92.66;101578.50;5065508;28;20036;-60
2022/01/06 01:54:33;;;;;;;26.83;3.80;;;;;;;1.29;92.61;101580.28;5060767;28;19953;-60
2022/01/06 01:56:58;;;;;;;22.53;4.10;;;;;;;1.27;92.41;101588.22;5051109;28;20017;-60
2022/01/06 01:59:23;;;;;;;18.40;3.47;;;;;;;1.22;92.22;101592.91;5054710;28;20025;-59
2022/01/06 02:01:49;;;;;;;16.17;3.07;;;;;;;1.14;92.05;101589.88;5061247;28;20033;-60
2022/01/06 02:04:14;;;;;;;26.93;3.47;;;;;;;1.07;92.12;101596.41;5054651;28;20039;-60
2022/01/06 02:06:39;;;;;;;22.10;3.47;;;;;;;1.02;92.06;101598.47;5059456;28;20036;-60
2022/01/06 02:09:05;;;;;;;22.07;3.53;;;;;;;1.00;92.15;101600.34;5053622;28;20067;-61
2022/01/06 02:11:30;;;;;;;24.47;3.43;;;;;;;0.97;92.20;101601.34;5061081;28;20032;-60
2022/01/06 02:13:58;;;;;;;26.30;3.67;;;;;;;0.98;92.21;101604.81;5056009;28;20028;-60
2022/01/06 02:16:26;;;;;;;28.30;3.70;;;;;;;0.96;92.40;101610.13;5054992;28;20025;-60
2022/01/06 02:18:53;;;;;;;19.93;3.50;;;;;;;0.97;92.46;101610.97;5049049;28;20036;-60
2022/01/06 02:21:19;;;;;;;23.53;3.83;;;;;;;0.98;92.46;101612.66;5057010;28;20033;-60
2022/01/06 02:23:46;;;;;;;21.40;3.40;;;;;;;1.04;92.61;101612.28;5056858;28;20016;-60
2022/01/06 02:26:11;;;;;;;23.87;3.83;;;;;;;1.12;92.98;101615.28;5054697;28;20060;-60
2022/01/06 02:28:37;;;;;;;25.07;3.90;;;;;;;1.17;93.12;101611.50;5059544;28;20116;-60
2022/01/06 02:31:03;;;;;;;23.60;3.60;;;;;;;1.20;93.14;101608.69;5057885;28;20030;-60
2022/01/06 02:33:28;;;;;;;20.57;3.53;;;;;;;1.21;93.04;101609.53;5061193;28;20464;-60
2022/01/06 02:35:54;;;;;;;25.10;3.33;;;;;;;1.21;92.90;101617.38;5057347;28;20059;-60
2022/01/06 02:38:21;;;;;;;23.20;3.30;;;;;;;1.21;92.95;101617.38;5053332;28;20021;-60
2022/01/06 02:40:47;;;;;;;24.43;3.93;;;;;;;1.17;92.81;101619.34;5057026;28;20024;-60
2022/01/06 02:43:16;;;;;;;24.67;3.93;;;;;;;1.13;92.53;101624.81;5056611;28;20123;-60
2022/01/06 02:45:43;;;;;;;25.50;4.00;;;;;;;1.11;92.75;101621.44;5052027;28;20116;-60
2022/01/06 02:48:08;;;;;;;28.17;5.20;;;;;;;1.11;92.81;101618.84;5053353;28;20064;-60
2022/01/06 02:50:37;;;;;;;33.47;4.37;;;;;;;1.11;92.85;101622.28;5052446;28;20044;-60
2022/01/06 02:53:02;;;;;;;20.80;3.43;;;;;;;1.12;92.98;101610.06;5052790;28;20319;-60
2022/01/06 02:55:27;;;;;;;24.70;4.47;;;;;;;1.14;93.27;101618.66;5057045;28;20473;-60
2022/01/06 02:57:53;;;;;;;27.60;3.97;;;;;;;1.13;93.28;101623.03;5057090;28;20029;-60
2022/01/06 03:00:18;;;;;;;24.67;3.63;;;;;;;1.10;93.22;101610.16;5055011;28;20035;-60
2022/01/06 03:02:46;;;;;;;23.83;4.00;;;;;;;1.09;93.10;101616.31;5060895;28;20021;-60
2022/01/06 03:05:13;;;;;;;23.73;3.63;;;;;;;1.01;92.82;101615.94;5060935;28;20036;-60
2022/01/06 03:07:39;;;;;;;22.63;3.70;;;;;;;0.92;92.66;101612.09;5059937;28;20031;-60
2022/01/06 03:10:07;;;;;;;25.83;3.90;;;;;;;0.81;92.56;101624.91;5055918;28;20040;-60
2022/01/06 03:12:39;;;;;;;25.27;3.30;;;;;;;0.70;92.37;101618.63;5054153;28;20032;-60
2022/01/06 03:15:12;;;;;;;18.33;3.30;;;;;;;0.58;92.12;101626.25;5054261;28;20033;-60
2022/01/06 03:17:38;;;;;;;23.50;3.17;;;;;;;0.51;92.21;101634.50;5056363;28;20118;-61
2022/01/06 03:20:06;;;;;;;17.53;3.30;;;;;;;0.45;92.15;101642.72;5055180;28;20040;-60
2022/01/06 03:22:31;;;;;;;20.73;3.37;;;;;;;0.42;92.26;101640.25;5057107;28;20047;-60
2022/01/06 03:24:57;;;;;;;23.67;3.43;;;;;;;0.41;92.30;101642.03;5054289;28;20484;-60
2022/01/06 03:27:22;;;;;;;21.43;3.10;;;;;;;0.43;92.43;101649.78;5059109;28;20083;-60
2022/01/06 03:29:49;;;;;;;21.13;3.80;;;;;;;0.47;92.65;101643.47;5051045;28;20448;-60
2022/01/06 03:32:15;;;;;;;23.37;3.97;;;;;;;0.54;92.82;101647.41;5054634;28;20021;-60
2022/01/06 03:34:40;;;;;;;23.47;3.43;;;;;;;0.67;93.09;101629.28;5060317;28;20115;-60
2022/01/06 03:37:06;;;;;;;23.97;3.13;;;;;;;0.83;93.41;101643.13;5054368;28;20025;-60
2022/01/06 03:39:32;;;;;;;21.97;3.10;;;;;;;0.93;93.40;101642.53;5051976;28;20054;-60
2022/01/06 03:41:58;;;;;;;27.67;3.43;;;;;;;1.06;93.61;101633.97;5053248;28;20071;-60
2022/01/06 03:44:24;;;;;;;23.20;3.30;;;;;;;1.12;93.68;101636.22;5056403;28;20024;-60
2022/01/06 03:46:49;;;;;;;19.57;2.73;;;;;;;1.18;93.42;101635.88;5056175;28;20020;-60
2022/01/06 03:49:14;;;;;;;22.90;3.43;;;;;;;1.23;93.52;101639.06;5064600;28;20524;-60
2022/01/06 03:51:39;;;;;;;18.63;2.70;;;;;;;1.28;93.28;101642.22;5055267;28;20025;-60
2022/01/06 03:54:05;;;;;;;19.70;3.13;;;;;;;1.28;93.31;101642.22;5060042;28;20031;-60
2022/01/06 03:56:30;;;;;;;22.23;2.90;;;;;;;1.30;93.04;101645.59;5060231;28;20089;-60
2022/01/06 03:58:55;;;;;;;14.63;2.53;;;;;;;1.30;92.92;101648.22;5059422;28;20045;-60
2022/01/06 04:01:21;;;;;;;15.37;2.80;;;;;;;1.29;92.89;101646.53;5057455;28;20033;-60
2022/01/06 04:03:47;;;;;;;16.87;2.50;;;;;;;1.23;92.59;101645.13;5053146;28;20481;-60
2022/01/06 04:06:13;;;;;;;21.13;2.60;;;;;;;1.18;92.41;101652.41;5057595;28;20074;-60
2022/01/06 04:08:39;;;;;;;13.90;2.60;;;;;;;1.09;92.19;101650.31;5059416;28;20031;-60
2022/01/06 04:11:04;;;;;;;14.07;3.13;;;;;;;1.04;92.01;101656.75;5060721;28;20034;-60
2022/01/06 04:13:29;;;;;;;14.80;2.13;;;;;;;0.99;91.95;101651.78;5053834;28;20143;-60
2022/01/06 04:15:55;;;;;;;20.23;2.70;;;;;;;0.97;91.92;101652.81;5063623;28;20105;-60
2022/01/06 04:18:20;;;;;;;18.97;2.60;;;;;;;0.95;91.86;101650.28;5058651;28;20106;-61
2022/01/06 04:20:46;;;;;;;19.13;2.77;;;;;;;0.97;92.25;101664.13;5064912;28;20099;-60
2022/01/06 04:23:11;;;;;;;20.83;3.23;;;;;;;0.99;92.18;101669.25;5061564;28;20032;-63
2022/01/06 04:25:36;;;;;;;23.93;3.53;;;;;;;0.98;92.19;101668.41;5063219;28;20024;-60
2022/01/06 04:28:02;;;;;;;21.33;3.23;;;;;;;0.91;92.12;101670.53;5063211;28;20016;-60
2022/01/06 04:30:27;;;;;;;18.20;2.87;;;;;;;0.87;91.94;101674.28;5057694;28;20401;-59
2022/01/06 04:32:52;;;;;;;21.07;2.80;;;;;;;0.87;92.06;101668.19;5056607;28;20025;-60
2022/01/06 04:35:18;;;;;;;21.73;3.20;;;;;;;0.90;92.15;101678.47;5058452;28;20063;-60
2022/01/06 04:37:43;;;;;;;15.93;3.10;;;;;;;0.93;92.38;101673.91;5061186;28;20021;-60
2022/01/06 04:40:09;;;;;;;22.33;3.13;;;;;;;0.97;92.51;101682.44;5062365;28;20055;-60
2022/01/06 04:42:34;;;;;;;20.50;2.73;;;;;;;0.94;92.17;101677.38;5056754;28;20040;-60
2022/01/06 04:45:00;;;;;;;21.37;3.00;;;;;;;0.88;92.10;101680.34;5056809;28;20078;-60
2022/01/06 04:47:25;;;;;;;18.20;2.80;;;;;;;0.79;91.99;101681.69;5057244;28;20029;-60
2022/01/06 04:49:50;;;;;;;23.67;3.67;;;;;;;0.75;91.85;101681.94;5066977;28;20491;-60
2022/01/06 04:52:16;;;;;;;19.60;2.70;;;;;;;0.71;92.04;101691.75;5062775;28;20029;-60
2022/01/06 04:54:41;;;;;;;22.80;3.27;;;;;;;0.70;91.98;101691.84;5061319;28;20021;-60
2022/01/06 04:57:06;;;;;;;24.77;3.20;;;;;;;0.65;91.91;101683.41;5061081;28;20484;-60
2022/01/06 04:59:32;;;;;;;20.07;3.30;;;;;;;0.61;91.99;101690.59;5056186;28;20028;-60
2022/01/06 05:01:57;;;;;;;23.90;3.47;;;;;;;0.57;91.89;101695.13;5055691;28;20069;-60
2022/01/06 05:04:22;;;;;;;16.27;2.37;;;;;;;0.51;91.84;101698.06;5055656;28;20025;-60
2022/01/06 05:06:50;;;;;;;22.13;3.63;;;;;;;0.46;91.82;101699.25;5056029;28;20032;-60
2022/01/06 05:09:16;;;;;;;21.77;3.43;;;;;;;0.42;91.69;101702.97;5052679;28;20025;-59
2022/01/06 05:11:41;;;;;;;16.47;2.60;;;;;;;0.38;91.98;101701.47;5059260;28;20086;-60
2022/01/06 05:14:06;;;;;;;20.30;3.40;;;;;;;0.36;91.79;101698.94;5057645;28;20033;-60
2022/01/06 05:16:32;;;;;;;19.43;3.33;;;;;;;0.36;92.05;101708.53;5054155;28;20063;-60
2022/01/06 05:18:57;;;;;;;16.97;3.27;;;;;;;0.34;92.16;101708.63;5061684;28;20103;-60
2022/01/06 05:21:22;;;;;;;19.50;3.10;;;;;;;0.33;92.23;101711.31;5057053;28;20388;-60
2022/01/06 05:23:49;;;;;;;21.03;3.23;;;;;;;0.32;92.42;101715.72;5062273;28;20028;-60
2022/01/06 05:26:14;;;;;;;26.57;3.90;;;;;;;0.34;92.56;101718.22;5055724;28;20057;-60
2022/01/06 05:28:40;;;;;;;25.03;3.10;;;;;;;0.38;92.71;101723.19;5061405;28;20052;-60
2022/01/06 05:31:05;;;;;;;23.13;3.60;;;;;;;0.40;92.69;101715.28;5058150;28;20024;-60
2022/01/06 05:33:30;;;;;;;22.20;3.10;;;;;;;0.41;92.78;101716.97;5061415;28;20067;-60
2022/01/06 05:35:55;;;;;;;24.13;3.70;;;;;;;0.42;92.87;101726.50;5056776;28;20028;-60
2022/01/06 05:38:21;;;;;;;21.27;3.37;;;;;;;0.42;92.85;101729.09;5052193;28;20036;-59
2022/01/06 05:40:46;;;;;;;18.40;3.10;;;;;;;0.39;93.04;101740.56;5050159;28;20020;-60
2022/01/06 05:43:12;;;;;;;26.57;3.60;;;;;;;0.39;92.87;101742.34;5054792;28;20444;-60
2022/01/06 05:45:37;;;;;;;21.40;3.13;;;;;;;0.40;92.94;101738.78;5055521;28;20033;-60
2022/01/06 05:48:03;;;;;;;28.27;3.53;;;;;;;0.44;93.00;101742.94;5060523;28;20021;-60
2022/01/06 05:50:28;;;;;;;22.17;3.60;;;;;;;0.48;93.20;101744.44;5060745;28;20036;-60
2022/01/06 05:52:54;;;;;;;24.60;3.47;;;;;;;0.51;93.14;101747.72;5056835;28;20107;-60
2022/01/06 05:55:21;;;;;;;18.50;3.27;;;;;;;0.50;93.11;101746.03;5055294;28;20078;-60
2022/01/06 05:57:47;;;;;;;19.33;2.73;;;;;;;0.47;92.90;101747.97;5060462;28;20031;-60
2022/01/06 06:00:13;;;;;;;19.43;2.73;;;;;;;0.43;92.76;101747.31;5058069;28;20035;-60
2022/01/06 06:02:38;;;;;;;18.70;3.13;;;;;;;0.39;92.39;101752.78;5055100;28;20047;-60
2022/01/06 06:05:04;;;;;;;19.53;3.00;;;;;;;0.36;92.63;101750.34;5054340;28;20033;-60
2022/01/06 06:07:30;;;;;;;17.13;3.70;;;;;;;0.36;92.58;101755.56;5055726;28;20017;-60
2022/01/06 06:09:55;;;;;;;20.57;2.80;;;;;;;0.38;92.73;101766.78;5059690;28;20063;-59
2022/01/06 06:12:20;;;;;;;26.17;2.93;;;;;;;0.39;92.74;101764.06;5057869;28;20017;-59
2022/01/06 06:14:46;;;;;;;17.03;2.97;;;;;;;0.40;92.80;101767.53;5061907;28;20103;-60
2022/01/06 06:17:11;;;;;;;18.80;2.97;;;;;;;0.42;92.77;101771.75;5066268;28;20025;-60
2022/01/06 06:19:36;;;;;;;17.50;3.30;;;;;;;0.45;93.02;101770.75;5052545;28;20075;-59
2022/01/06 06:22:02;;;;;;;17.27;3.93;;;;;;;0.49;92.94;101782.72;5057838;28;20024;-60
2022/01/06 06:24:27;;;;;;;20.90;2.77;;;;;;;0.47;92.74;101784.56;5063384;28;20408;-60
2022/01/06 06:26:53;;;;;;;18.70;3.37;;;;;;;0.45;92.68;101773.34;5054340;28;20434;-59
2022/01/06 06:29:19;;;;;;;17.97;3.03;;;;;;;0.42;92.61;101778.75;5058030;28;20086;-60
2022/01/06 06:31:44;;;;;;;16.63;3.17;;;;;;;0.46;92.56;101773.25;5053165;28;20032;-60
2022/01/06 06:34:10;;;;;;;18.90;3.30;;;;;;;0.48;92.70;101786.25;5053692;28;20029;-60
2022/01/06 06:36:36;;;;;;;22.23;3.00;;;;;;;0.48;92.77;101781.03;5056534;28;20028;-60
2022/01/06 06:39:01;;;;;;;26.60;3.73;;;;;;;0.48;92.73;101775.78;5049655;28;20080;-60
2022/01/06 06:41:27;;;;;;;23.20;3.27;;;;;;;0.49;92.83;101782.72;5058962;28;20059;-60
2022/01/06 06:43:52;;;;;;;17.03;3.07;;;;;;;0.45;92.84;101786.41;5054325;28;20523;-60
2022/01/06 06:46:17;;;;;;;22.03;3.20;;;;;;;0.43;92.62;101790.88;5056276;28;20035;-60
2022/01/06 06:48:42;;;;;;;17.53;2.83;;;;;;;0.37;92.54;101794.66;5055405;28;20420;-60
2022/01/06 06:51:08;;;;;;;16.17;3.20;;;;;;;0.36;92.73;101805.22;5056845;28;20083;-60
2022/01/06 06:53:33;;;;;;;15.47;3.00;;;;;;;0.37;92.78;101804.28;5059647;28;20060;-60
2022/01/06 06:55:59;;;;;;;25.13;3.73;;;;;;;0.36;92.83;101803.44;5057652;28;20016;-60
2022/01/06 06:58:24;;;;;;;18.83;3.53;;;;;;;0.38;92.99;101805.97;5057551;28;20506;-60
2022/01/06 07:00:50;;;;;;;19.33;3.27;;;;;;;0.38;93.02;101812.03;5055590;28;20095;-60
2022/01/06 07:03:15;;;;;;;24.77;3.60;;;;;;;0.37;92.89;101807.72;5057338;28;20029;-60
2022/01/06 07:05:40;;;;;;;21.43;3.90;;;;;;;0.39;93.16;101805.03;5053650;28;20547;-60
2022/01/06 07:08:05;;;;;;;17.03;3.17;;;;;;;0.39;92.97;101813.72;5056428;28;20043;-60
2022/01/06 07:10:31;;;;;;;20.90;4.07;;;;;;;0.41;93.32;101813.63;5056807;28;20032;-59
2022/01/06 07:12:56;;;;;;;19.90;3.50;;;;;;;0.41;93.18;101827.53;5061127;28;20053;-60
2022/01/06 07:15:21;;;;;;;18.17;3.60;;;;;;;0.43;93.18;101830.06;5051447;28;20492;-59
2022/01/06 07:17:47;;;;;;;19.17;3.80;;;;;;;0.39;93.12;101834.63;5050361;28;20031;-60
2022/01/06 07:20:12;;;;;;;17.23;3.90;;;;;;;0.38;92.98;101832.94;5037067;28;20036;-60
2022/01/06 07:22:38;;;;;;;24.30;4.10;;;;;;;0.37;92.85;101833.00;5058548;28;20060;-60
2022/01/06 07:25:04;;;;;;;22.60;4.47;;;;;;;0.35;92.82;101842.72;5056994;28;20033;-60
2022/01/06 07:27:29;;;;;;;18.00;3.47;;;;;;;0.34;92.89;101841.88;5063876;28;20033;-60
2022/01/06 07:29:55;;;;;;;18.53;4.03;;;;;;;0.35;92.95;101848.78;5061877;28;20635;-60
2022/01/06 07:32:21;;;;;;;15.27;3.80;;;;;;;0.33;93.17;101850.63;5059192;28;20079;-60
2022/01/06 07:34:46;;;;;;;27.37;4.43;;;;;;;0.35;92.94;101855.78;5053679;28;20025;-60
2022/01/06 07:37:11;;;;;;;14.40;4.03;;;;;;;0.35;93.08;101854.00;5057917;28;20029;-60
2022/01/06 07:39:37;;;;;;;24.87;4.50;;;;;;;0.33;93.12;101853.25;5054724;28;20037;-60
2022/01/06 07:42:03;;;;;;;23.13;4.20;;;;;;;0.32;93.08;101850.72;5057054;28;20024;-60
2022/01/06 07:44:29;;;;;;;25.33;4.83;;;;;;;0.29;93.14;101849.94;5067304;28;20032;-60
2022/01/06 07:46:54;;;;;;;21.43;4.83;;;;;;;0.29;93.40;101859.56;5065133;28;20027;-60
2022/01/06 07:49:20;;;;;;;24.00;4.63;;;;;;;0.30;93.31;101850.78;5056944;28;20166;-60
2022/01/06 07:51:45;;;;;;;18.63;3.90;;;;;;;0.30;93.43;101851.63;5060843;28;20029;-60
2022/01/06 07:54:11;;;;;;;25.70;4.53;;;;;;;0.32;93.18;101856.78;5065770;28;20044;-60
2022/01/06 07:56:36;;;;;;;16.87;4.33;;;;;;;0.32;93.53;101854.16;5067136;28;20386;-60
2022/01/06 07:59:02;;;;;;;20.07;5.10;;;;;;;0.34;93.32;101862.75;5055103;28;20037;-60
2022/01/06 08:01:28;;;;;;;23.80;5.50;;;;;;;0.36;93.49;101857.47;5059387;28;20036;-60
2022/01/06 08:03:53;;;;;;;22.60;5.20;;;;;;;0.38;93.44;101860.84;5061455;28;20033;-60
2022/01/06 08:06:19;;;;;;;20.87;4.90;;;;;;;0.36;93.47;101853.06;5054453;28;20033;-59
2022/01/06 08:08:45;;;;;;;21.73;4.67;;;;;;;0.37;93.52;101854.75;5065366;28;20038;-60
2022/01/06 08:11:11;;;;;;;25.60;4.90;;;;;;;0.36;93.47;101863.53;5062741;28;20115;-60
2022/01/06 08:13:37;;;;;;;24.00;4.60;;;;;;;0.38;93.50;101866.91;5066035;28;20056;-60
2022/01/06 08:16:02;;;;;;;16.10;4.33;;;;;;;0.40;93.44;101866.81;5059005;28;20063;-60
2022/01/06 08:18:28;;;;;;;19.87;4.93;;;;;;;0.42;93.40;101864.97;5058029;28;20036;-60
2022/01/06 08:20:53;;;;;;;24.13;4.83;;;;;;;0.44;93.62;101869.19;5056121;28;20060;-60
2022/01/06 08:23:18;;;;;;;26.43;4.63;;;;;;;0.48;93.56;101870.72;5060871;28;20056;-60
2022/01/06 08:25:44;;;;;;;27.60;4.73;;;;;;;0.47;93.81;101857.72;5062783;28;20041;-60
2022/01/06 08:28:10;;;;;;;25.70;4.97;;;;;;;0.56;93.75;101868.53;5056536;28;20535;-60
2022/01/06 08:30:35;;;;;;;29.97;5.20;;;;;;;0.63;93.84;101868.22;5064840;28;20043;-59
2022/01/06 08:33:02;;;;;;;23.73;4.80;;;;;;;0.66;93.68;101870.69;5058000;28;20108;-59
2022/01/06 08:35:28;;;;;;;19.60;4.20;;;;;;;0.66;93.66;101871.53;5059096;28;20036;-60
2022/01/06 08:37:53;;;;;;;15.57;4.17;;;;;;;0.65;93.52;101877.69;5053871;28;20028;-60
2022/01/06 08:40:18;;;;;;;24.03;5.37;;;;;;;0.66;93.43;101879.38;5052214;28;20016;-60
2022/01/06 08:42:46;;;;;;;20.23;5.53;;;;;;;0.65;93.42;101877.69;5056947;28;20035;-60
2022/01/06 08:45:12;;;;;;;24.23;5.73;;;;;;;0.68;93.20;101884.50;5058256;28;20033;-60
2022/01/06 08:47:37;;;;;;;22.80;5.43;;;;;;;0.68;93.29;101890.59;5063168;28;20032;-60
2022/01/06 08:50:03;;;;;;;22.17;5.00;;;;;;;0.64;93.05;101894.28;5052759;28;20040;-60
2022/01/06 08:52:29;;;;;;;26.87;5.47;;;;;;;0.63;93.06;101889.97;5059147;28;20094;-60
2022/01/06 08:54:54;;;;;;;22.07;6.03;;;;;;;0.69;93.15;101888.81;5050325;28;20029;-60
2022/01/06 08:57:19;;;;;;;25.27;6.30;;;;;;;0.85;93.35;101884.44;5057411;28;20025;-60
2022/01/06 08:59:45;;;;;;;21.97;6.13;;;;;;;0.95;93.40;101885.66;5060896;28;20028;-60
2022/01/06 09:02:10;;;;;;;21.40;5.70;;;;;;;1.03;93.47;101882.59;5064212;28;20035;-60
2022/01/06 09:04:36;;;;;;;29.20;6.70;;;;;;;1.09;93.29;101892.72;5056927;28;20503;-60
2022/01/06 09:07:03;;;;;;;30.53;6.53;;;;;;;1.14;93.22;101895.94;5055150;28;20032;-60
2022/01/06 09:09:29;;;;;;;21.83;6.10;;;;;;;1.28;93.10;101898.66;5050368;28;20044;-60
2022/01/06 09:11:54;;;;;;;23.13;6.50;;;;;;;1.38;93.10;101915.53;5056788;28;20025;-60
2022/01/06 09:14:20;;;;;;;21.13;5.70;;;;;;;1.48;92.97;101913.25;5051228;28;20382;-60
2022/01/06 09:16:46;;;;;;;21.93;5.73;;;;;;;1.48;92.65;101914.09;5053053;28;20488;-59
2022/01/06 09:19:11;;;;;;;24.87;5.73;;;;;;;1.50;92.33;101914.00;5061641;28;20402;-60
2022/01/06 09:21:36;;;;;;;17.33;6.00;;;;;;;1.48;92.22;101914.09;5058353;28;20028;-60
2022/01/06 09:24:06;;;;;;;24.43;6.13;;;;;;;1.48;92.26;101921.94;5058878;28;20025;-60
2022/01/06 09:26:32;;;;;;;21.40;5.97;;;;;;;1.48;92.34;101916.72;5060387;28;20498;-60
2022/01/06 09:28:57;;;;;;;19.00;5.73;;;;;;;1.49;92.19;101914.94;5056003;28;20504;-60
2022/01/06 09:31:23;;;;;;;22.20;6.10;;;;;;;1.50;92.22;101917.47;5054869;28;20032;-60
2022/01/06 09:33:48;;;;;;;20.90;5.90;;;;;;;1.54;92.29;101926.00;5054366;28;20035;-60
2022/01/06 09:36:13;;;;;;;19.67;5.67;;;;;;;1.58;92.33;101929.28;5062126;28;20033;-60
2022/01/06 09:38:39;;;;;;;27.00;6.67;;;;;;;1.63;92.39;101933.31;5053778;28;20538;-59
2022/01/06 09:41:06;;;;;;;23.50;6.33;;;;;;;1.69;92.71;101943.44;5058875;28;20043;-60
2022/01/06 09:43:32;;;;;;;24.20;6.20;;;;;;;1.76;92.69;101933.50;5059041;28;20107;-60
2022/01/06 09:46:02;;;;;;;28.43;6.57;;;;;;;1.80;92.54;101937.63;5057339;28;20033;-60
2022/01/06 09:48:29;;;;;;;24.33;5.47;;;;;;;1.87;92.66;101933.72;5053634;28;20040;-60
2022/01/06 09:50:56;;;;;;;20.77;6.07;;;;;;;1.94;92.66;101945.53;5064470;28;20028;-60
2022/01/06 09:53:23;;;;;;;26.33;6.17;;;;;;;2.02;92.52;101939.84;5059398;28;20032;-60
2022/01/06 09:55:49;;;;;;;19.23;5.67;;;;;;;2.11;92.71;101945.41;5054020;28;20448;-60
2022/01/06 09:58:21;;;;;;;19.07;6.40;;;;;;;2.19;92.65;101944.94;5061265;28;20031;-60
2022/01/06 10:00:47;;;;;;;21.77;6.23;;;;;;;2.27;92.66;101940.09;5056295;28;20965;-58
2022/01/06 10:03:12;;;;;;;26.10;5.83;;;;;;;2.32;92.50;101935.47;5058858;28;20040;-60
2022/01/06 10:05:46;;;;;;;29.00;5.77;;;;;;;2.36;92.42;101936.97;5056209;28;20024;-60
2022/01/06 10:08:13;;;;;;;22.63;5.67;;;;;;;2.44;92.55;101944.34;5054429;28;20488;-60
2022/01/06 10:10:40;;;;;;;26.07;5.73;;;;;;;2.49;92.59;101944.94;5055697;28;20021;-60
2022/01/06 10:13:08;;;;;;;24.80;5.83;;;;;;;2.55;92.43;101941.94;5060512;28;20043;-59
2022/01/06 10:15:36;;;;;;;27.67;5.63;;;;;;;2.65;92.26;101943.09;5039560;28;20032;-60
2022/01/06 10:18:12;;;;;;;24.63;6.40;;;;;;;2.72;92.01;101936.53;5059777;28;20085;-59
2022/01/06 10:20:37;;;;;;;23.40;5.77;;;;;;;2.78;92.06;101928.28;5053396;28;20044;-60
2022/01/06 10:23:11;;;;;;;25.07;5.50;;;;;;;2.87;91.82;101936.50;5051668;28;20025;-60
2022/01/06 10:25:38;;;;;;;21.63;5.23;;;;;;;2.94;91.63;101937.84;5057273;28;20032;-59
2022/01/06 10:28:14;;;;;;;23.57;5.53;;;;;;;3.04;91.75;101936.34;5052288;28;20376;-60
2022/01/06 10:30:47;;;;;;;27.90;5.23;;;;;;;3.13;91.21;101933.13;5054746;28;20147;-60
2022/01/06 10:33:13;;;;;;;17.87;5.23;;;;;;;3.20;91.11;101921.34;5055207;28;20024;-60
2022/01/06 10:35:39;;;;;;;23.30;4.87;;;;;;;3.27;91.12;101917.38;5060478;28;20021;-60
2022/01/06 10:38:04;;;;;;;20.67;5.40;;;;;;;3.37;91.09;101920.25;5049690;28;20029;-59
2022/01/06 10:40:29;;;;;;;20.70;5.50;;;;;;;3.47;90.67;101924.00;5052887;28;20056;-59
2022/01/06 10:42:57;;;;;;;21.30;5.30;;;;;;;3.55;90.42;101918.25;5060625;28;20032;-60
2022/01/06 10:45:26;;;;;;;23.67;5.30;;;;;;;3.59;90.42;101925.81;5059193;28;20036;-60
2022/01/06 10:47:57;;;;;;;19.20;4.50;;;;;;;3.60;89.79;101911.75;5055582;28;20039;-60
2022/01/06 10:50:25;;;;;;;25.50;5.27;;;;;;;3.57;89.54;101925.06;5060407;28;20029;-60
2022/01/06 10:53:11;;;;;;;14.95;4.70;;;;;;;3.55;89.08;101924.34;5062114;28;20033;-60
2022/01/06 10:55:39;;;;;;;18.97;4.83;;;;;;;3.55;89.19;101920.88;5053825;28;20115;-60
2022/01/06 10:58:07;;;;;;;22.03;5.23;;;;;;;3.59;89.40;101924.97;5058506;28;20028;-60
2022/01/06 11:00:36;;;;;;;32.97;6.03;;;;;;;3.62;89.20;101925.63;5053884;28;20043;-60
2022/01/06 11:03:06;;;;;;;19.75;5.15;;;;;;;3.70;89.48;101922.47;5059561;28;20031;-60
2022/01/06 11:05:33;;;;;;;;;;;;;;;3.79;89.66;101919.28;5056700;28;20625;-60
2022/01/06 11:08:00;;;;;;;22.10;5.03;;;;;;;3.88;89.78;101916.03;5055426;28;19923;-60
2022/01/06 11:10:25;;;;;;;22.23;4.93;;;;;;;3.97;89.44;101912.78;5054380;28;20052;-59
2022/01/06 11:12:50;;;;;;;25.13;5.57;;;;;;;4.10;89.45;101912.00;5057049;28;20488;-60
2022/01/06 11:15:16;;;;;;;16.60;4.63;;;;;;;4.24;89.32;101906.63;5056184;28;20025;-60
2022/01/06 11:17:46;;;;;;;17.23;4.40;;;;;;;4.34;89.36;101907.72;5064344;28;20024;-60
2022/01/06 11:20:12;;;;;;;24.87;5.10;;;;;;;4.42;88.72;101910.66;5055221;28;20029;-60
2022/01/06 11:22:49;;;;;;;18.77;4.30;;;;;;;4.47;88.05;101911.19;5061809;28;20669;-60
2022/01/06 11:25:14;;;;;;;22.27;5.20;;;;;;;4.52;87.99;101905.59;5053132;28;20024;-60
2022/01/06 11:27:39;;;;;;;21.83;4.43;;;;;;;4.55;87.56;101911.50;5060764;28;20021;-60
2022/01/06 11:30:15;;;;;;;21.43;5.30;;;;;;;4.62;87.74;101914.53;5056977;28;20666;-60